Time;durP1;ratioP1;P1;durP2;ratioP2;P2;SDS_P1;SDS_P2;PMS_P1;PMS_P2;Temp;Humidity;BMP_temperature;BMP_pressure;BME280_temperature;BME280_humidity;BME280_pressure;Samples;Min_cycle;Max_cycle;Signal;HPM_P1;HPM_P2
2021/04/27 00:00:50;;;;;;;7.90;3.80;;;;;;;3.26;100.00;101485.91;3572458;40;20389;-61
2021/04/27 00:03:17;;;;;;;6.53;4.60;;;;;;;3.23;100.00;101481.59;3572507;40;20049;-60
2021/04/27 00:05:43;;;;;;;9.57;4.00;;;;;;;3.26;100.00;101483.25;3572742;40;20098;-60
2021/04/27 00:08:09;;;;;;;8.63;4.65;;;;;;;3.11;100.00;101477.72;3571662;40;20088;-59
2021/04/27 00:10:36;;;;;;;6.68;4.22;;;;;;;3.04;100.00;101465.66;3572230;40;20055;-59
2021/04/27 00:13:02;;;;;;;8.88;4.75;;;;;;;2.93;100.00;101466.16;3572041;40;20127;-59
2021/04/27 00:15:29;;;;;;;8.80;4.63;;;;;;;2.91;100.00;101478.66;3572523;40;20049;-59
2021/04/27 00:17:56;;;;;;;6.78;4.10;;;;;;;2.91;100.00;101469.81;3571258;40;20041;-60
2021/04/27 00:20:24;;;;;;;12.18;4.43;;;;;;;2.96;100.00;101462.50;3571441;40;20048;-59
2021/04/27 00:22:51;;;;;;;7.07;4.68;;;;;;;2.96;100.00;101467.81;3570556;40;20119;-59
2021/04/27 00:25:17;;;;;;;8.85;4.63;;;;;;;2.97;100.00;101467.75;3570557;40;20041;-59
2021/04/27 00:27:47;;;;;;;6.90;4.30;;;;;;;2.87;100.00;101462.91;3571858;40;20060;-61
2021/04/27 00:30:14;;;;;;;9.20;4.30;;;;;;;2.93;100.00;101465.28;3570537;40;20056;-59
2021/04/27 00:32:40;;;;;;;10.82;4.40;;;;;;;2.93;100.00;101465.28;3570047;40;20130;-59
2021/04/27 00:35:08;;;;;;;10.88;4.38;;;;;;;2.90;100.00;101462.78;3571461;40;20036;-60
2021/04/27 00:37:34;;;;;;;6.03;3.97;;;;;;;2.88;100.00;101459.34;3570944;40;20311;-59
2021/04/27 00:40:02;;;;;;;8.70;3.75;;;;;;;2.92;100.00;101458.25;3571942;40;20068;-59
2021/04/27 00:42:30;;;;;;;6.95;3.95;;;;;;;2.82;100.00;101459.63;3570362;40;20037;-58
2021/04/27 00:44:56;;;;;;;7.68;4.03;;;;;;;2.81;100.00;101453.44;3569760;40;20525;-59
2021/04/27 00:47:22;;;;;;;7.32;4.00;;;;;;;2.79;100.00;101453.50;3570782;40;20045;-59
2021/04/27 00:49:49;;;;;;;6.53;3.72;;;;;;;2.89;100.00;101451.28;3571369;40;20320;-60
2021/04/27 00:52:16;;;;;;;8.18;3.40;;;;;;;2.89;100.00;101451.28;3571122;40;20063;-59
2021/04/27 00:54:41;;;;;;;7.53;4.20;;;;;;;2.73;100.00;101440.50;3571042;40;20442;-61
2021/04/27 00:57:07;;;;;;;8.32;4.32;;;;;;;2.77;100.00;101443.91;3571149;40;20073;-60
2021/04/27 00:59:33;;;;;;;6.78;3.72;;;;;;;2.70;100.00;101438.00;3571507;40;20041;-59
2021/04/27 01:01:59;;;;;;;8.43;4.47;;;;;;;2.73;100.00;101437.84;3569877;40;20080;-59
2021/04/27 01:04:25;;;;;;;5.90;3.95;;;;;;;2.73;100.00;101431.69;3570536;40;20122;-59
2021/04/27 01:06:51;;;;;;;5.53;3.72;;;;;;;2.74;100.00;101433.38;3571864;40;20053;-58
2021/04/27 01:09:27;;;;;;;8.35;4.13;;;;;;;2.54;100.00;101423.69;3571609;40;20053;-59
2021/04/27 01:12:00;;;;;;;8.68;4.40;;;;;;;2.57;100.00;101423.53;3571551;40;20056;-60
2021/04/27 01:14:30;;;;;;;6.63;4.25;;;;;;;2.53;100.00;101412.22;3570991;40;20051;-62
2021/04/27 01:17:00;;;;;;;7.22;4.30;;;;;;;2.51;100.00;101410.53;3571280;40;20053;-59
2021/04/27 01:19:34;;;;;;;11.75;4.35;;;;;;;2.51;100.00;101402.56;3571417;40;20059;-59
2021/04/27 01:22:00;;;;;;;7.75;4.45;;;;;;;2.51;100.00;101394.59;3570364;40;20051;-60
2021/04/27 01:24:34;;;;;;;8.82;4.63;;;;;;;2.39;100.00;101398.69;3570765;40;20307;-59
2021/04/27 01:27:02;;;;;;;8.32;4.38;;;;;;;2.34;100.00;101390.94;3571793;40;20041;-58
2021/04/27 01:29:33;;;;;;;6.80;4.33;;;;;;;2.36;100.00;101391.72;3571086;40;20109;-59
2021/04/27 01:32:01;;;;;;;11.20;4.63;;;;;;;2.36;100.00;101397.03;3571328;40;20396;-60
2021/04/27 01:34:32;;;;;;;11.38;4.78;;;;;;;2.39;100.00;101382.75;3571258;40;20053;-59
2021/04/27 01:36:58;;;;;;;7.18;4.10;;;;;;;2.39;100.00;101388.91;3570074;40;20080;-59
2021/04/27 01:39:27;;;;;;;8.38;4.53;;;;;;;2.35;100.00;101382.00;3571302;40;20160;-58
2021/04/27 01:41:53;;;;;;;6.97;4.47;;;;;;;2.30;100.00;101391.13;3571235;40;20427;-61
2021/04/27 01:44:21;;;;;;;6.63;4.18;;;;;;;2.29;100.00;101392.91;3569721;40;20388;-59
2021/04/27 01:46:48;;;;;;;5.40;3.92;;;;;;;2.34;100.00;101388.28;3571319;40;20060;-57
2021/04/27 01:49:15;;;;;;;11.20;4.22;;;;;;;2.23;100.00;101390.53;3634266;23;20283;-58
2021/04/27 01:51:42;;;;;;;7.60;3.88;;;;;;;2.18;100.00;101377.47;3580271;40;20036;-58
2021/04/27 01:54:09;;;;;;;7.53;4.03;;;;;;;2.19;100.00;101378.34;3580590;40;20066;-60
2021/04/27 01:56:35;;;;;;;6.28;4.13;;;;;;;2.22;100.00;101381.72;3580087;40;20048;-58
2021/04/27 01:59:02;;;;;;;7.60;4.60;;;;;;;2.25;100.00;101372.72;3580324;40;20057;-59
2021/04/27 02:01:28;;;;;;;11.93;4.55;;;;;;;2.23;100.00;101371.97;3579886;40;20052;-59
2021/04/27 02:03:54;;;;;;;7.97;4.22;;;;;;;2.07;100.00;101369.97;3580265;40;20309;-62
2021/04/27 02:06:20;;;;;;;6.75;4.53;;;;;;;2.06;100.00;101365.63;3580906;40;20312;-58
2021/04/27 02:08:57;;;;;;;7.03;4.03;;;;;;;2.18;100.00;101373.94;3581557;40;20052;-58
2021/04/27 02:11:24;;;;;;;8.80;4.07;;;;;;;2.09;100.00;101373.44;3580472;40;20060;-58
2021/04/27 02:17:22;;;;;;;14.13;4.20;;;;;;;2.07;100.00;101371.78;3585735;23;20060;-59
2021/04/27 02:19:49;;;;;;;9.50;4.38;;;;;;;2.02;100.00;101369.34;3570283;40;20041;-58
2021/04/27 02:22:16;;;;;;;9.43;4.57;;;;;;;1.97;100.00;101362.50;3570996;40;20037;-59
2021/04/27 02:24:42;;;;;;;7.20;4.13;;;;;;;1.96;100.00;101364.31;3569345;40;20044;-61
2021/04/27 02:27:11;;;;;;;9.20;4.63;;;;;;;1.91;100.00;101366.28;3570804;40;20053;-60
2021/04/27 02:29:39;;;;;;;11.57;5.05;;;;;;;1.88;100.00;101358.47;3570689;40;20137;-59
2021/04/27 02:32:06;;;;;;;11.30;4.47;;;;;;;1.89;100.00;101360.19;3570980;40;20408;-59
2021/04/27 02:34:33;;;;;;;8.52;4.20;;;;;;;1.86;100.00;101363.84;3569712;40;20049;-60
2021/04/27 02:36:59;;;;;;;9.02;4.60;;;;;;;1.75;100.00;101343.09;3570971;40;20053;-58
2021/04/27 02:39:25;;;;;;;6.50;4.45;;;;;;;1.79;100.00;101342.94;3571187;40;20049;-60
2021/04/27 02:41:51;;;;;;;7.78;4.38;;;;;;;1.84;100.00;101335.63;3570621;40;20149;-59
2021/04/27 02:44:18;;;;;;;7.80;4.88;;;;;;;1.77;100.00;101339.47;3569779;40;20041;-60
2021/04/27 02:49:44;;;;;;;;;;;;;;;1.74;100.00;101333.41;3613877;23;20064;-58
2021/04/27 02:52:10;;;;;;;8.45;4.72;;;;;;;1.84;100.00;101340.94;3579682;40;19940;-58
2021/04/27 02:54:36;;;;;;;10.68;4.75;;;;;;;1.78;100.00;101334.09;3580783;40;20308;-61
2021/04/27 02:57:02;;;;;;;12.55;4.93;;;;;;;1.67;100.00;101331.09;3581360;40;20141;-59
2021/04/27 02:59:28;;;;;;;8.25;4.40;;;;;;;1.71;100.00;101338.00;3581151;40;20072;-62
2021/04/27 03:01:54;;;;;;;9.18;5.45;;;;;;;1.72;100.00;101329.97;3581816;40;20045;-59
2021/04/27 03:04:20;;;;;;;6.95;4.40;;;;;;;1.71;100.00;101322.91;3581665;40;20063;-60
2021/04/27 03:06:47;;;;;;;7.50;4.35;;;;;;;1.60;100.00;101325.16;3581477;40;20056;-58
2021/04/27 03:09:12;;;;;;;7.80;4.75;;;;;;;1.57;100.00;101330.63;3581825;40;20040;-61
2021/04/27 03:11:38;;;;;;;8.80;4.60;;;;;;;1.52;100.00;101327.31;3582576;40;20422;-59
2021/04/27 03:14:04;;;;;;;9.57;4.57;;;;;;;1.44;100.00;101329.41;3580410;40;20326;-58
2021/04/27 03:16:30;;;;;;;7.78;5.20;;;;;;;1.47;100.00;101321.31;3582241;40;20072;-59
2021/04/27 03:18:56;;;;;;;12.40;5.63;;;;;;;1.38;100.00;101325.25;3582428;40;20427;-62
2021/04/27 03:21:22;;;;;;;8.73;4.60;;;;;;;1.43;100.00;101328.56;3581290;40;20063;-58
2021/04/27 03:23:49;;;;;;;10.23;5.80;;;;;;;1.39;100.00;101330.47;3582065;40;20048;-58
2021/04/27 03:26:15;;;;;;;6.57;4.60;;;;;;;1.44;100.00;101324.13;3581964;40;20049;-59
2021/04/27 03:28:41;;;;;;;8.80;5.10;;;;;;;1.34;100.00;101311.25;3582116;40;20137;-59
2021/04/27 03:31:08;;;;;;;7.88;5.13;;;;;;;1.38;100.00;101309.31;3581606;40;20080;-59
2021/04/27 03:33:34;;;;;;;8.30;5.10;;;;;;;1.37;100.00;101310.25;3581721;40;20053;-58
2021/04/27 03:36:00;;;;;;;9.35;4.97;;;;;;;1.38;100.00;101296.94;3581825;40;20045;-58
2021/04/27 03:38:26;;;;;;;8.18;4.72;;;;;;;1.25;100.00;101303.66;3581498;40;20048;-59
2021/04/27 03:40:53;;;;;;;7.53;4.65;;;;;;;1.21;100.00;101304.75;3581837;40;20415;-59
2021/04/27 03:43:19;;;;;;;10.43;5.32;;;;;;;1.15;100.00;101307.63;3581155;40;20045;-60
2021/04/27 03:45:46;;;;;;;9.00;5.13;;;;;;;1.21;100.00;101312.72;3581265;40;20049;-59
2021/04/27 03:48:15;;;;;;;9.02;5.03;;;;;;;1.31;100.00;101303.44;3580778;40;20303;-58
2021/04/27 03:50:42;;;;;;;9.13;5.05;;;;;;;1.19;100.00;101296.88;3582563;40;20048;-58
2021/04/27 03:53:08;;;;;;;9.68;5.07;;;;;;;1.04;100.00;101294.84;3581394;40;20052;-60
2021/04/27 03:55:35;;;;;;;16.42;6.65;;;;;;;1.02;100.00;101300.22;3581557;40;20048;-58
2021/04/27 03:58:03;;;;;;;9.57;5.47;;;;;;;1.02;100.00;101292.25;3581438;40;20670;-59
2021/04/27 04:00:29;;;;;;;9.80;5.75;;;;;;;1.02;100.00;101297.56;3582022;40;20051;-59
2021/04/27 04:02:55;;;;;;;7.88;5.10;;;;;;;0.99;100.00;101297.69;3580831;40;20046;-60
2021/04/27 04:05:21;;;;;;;11.60;5.70;;;;;;;0.95;100.00;101285.50;3581160;40;20049;-59
2021/04/27 04:07:47;;;;;;;9.70;5.25;;;;;;;0.92;100.00;101293.56;3582424;40;20063;-59
2021/04/27 04:10:15;;;;;;;10.60;5.03;;;;;;;0.90;100.00;101298.09;3581470;40;20062;-59
2021/04/27 04:12:42;;;;;;;10.23;5.68;;;;;;;0.93;100.00;101292.66;3581113;40;20138;-58
2021/04/27 04:15:11;;;;;;;9.88;5.13;;;;;;;0.94;100.00;101294.34;3582304;40;20161;-58
2021/04/27 04:17:38;;;;;;;8.77;5.47;;;;;;;0.92;100.00;101288.28;3582159;40;20072;-58
2021/04/27 04:20:04;;;;;;;12.60;5.25;;;;;;;0.85;100.00;101292.09;3581710;40;20440;-58
2021/04/27 04:22:30;;;;;;;7.68;5.20;;;;;;;0.90;100.00;101276.88;3580156;40;20045;-59
2021/04/27 04:24:56;;;;;;;12.13;5.40;;;;;;;0.83;100.00;101278.91;3581324;40;20578;-61
2021/04/27 04:27:22;;;;;;;8.80;5.38;;;;;;;0.81;100.00;101277.25;3580130;40;20112;-58
2021/04/27 04:29:48;;;;;;;12.65;5.50;;;;;;;0.78;100.00;101277.38;3581709;40;20102;-58
2021/04/27 04:32:15;;;;;;;10.88;5.63;;;;;;;0.80;100.00;101286.13;3580737;40;20045;-60
2021/04/27 04:34:41;;;;;;;12.35;6.28;;;;;;;0.64;100.00;101276.16;3580884;40;20311;-59
2021/04/27 04:37:08;;;;;;;12.90;6.40;;;;;;;0.73;100.00;101274.06;3581283;40;20157;-59
2021/04/27 04:39:34;;;;;;;10.73;5.72;;;;;;;0.67;100.00;101268.06;3580579;40;20045;-58
2021/04/27 04:42:01;;;;;;;9.00;5.65;;;;;;;0.76;100.00;101268.63;3581011;40;20056;-59
2021/04/27 04:44:28;;;;;;;9.68;5.70;;;;;;;0.80;100.00;101267.59;3580941;40;20522;-58
2021/04/27 04:46:55;;;;;;;11.38;5.68;;;;;;;0.81;100.00;101269.28;3576232;40;20045;-59
2021/04/27 04:49:22;;;;;;;9.35;5.13;;;;;;;0.89;100.00;101275.16;3577537;40;20041;-59
2021/04/27 04:51:48;;;;;;;10.10;5.75;;;;;;;0.82;100.00;101277.19;3575261;40;20700;-58
2021/04/27 04:54:14;;;;;;;11.43;6.18;;;;;;;0.77;100.00;101280.97;3574853;40;20052;-61
2021/04/27 04:56:40;;;;;;;12.93;6.30;;;;;;;0.73;100.00;101274.91;3576316;40;20067;-60
2021/04/27 04:59:06;;;;;;;12.63;6.68;;;;;;;0.71;100.00;101274.13;3573739;40;20072;-58
2021/04/27 05:01:32;;;;;;;12.00;6.35;;;;;;;0.74;100.00;101281.06;3578024;40;20063;-58
2021/04/27 05:03:58;;;;;;;9.80;5.57;;;;;;;0.86;100.00;101275.28;3574004;40;20059;-58
2021/04/27 05:06:25;;;;;;;10.35;5.75;;;;;;;0.88;100.00;101273.41;3575513;40;20126;-57
2021/04/27 05:08:53;;;;;;;12.23;5.97;;;;;;;0.97;100.00;101278.34;3575684;40;20058;-59
2021/04/27 05:11:19;;;;;;;12.13;5.75;;;;;;;0.97;100.00;101264.22;3574566;40;20056;-58
2021/04/27 05:13:45;;;;;;;11.40;5.97;;;;;;;1.07;100.00;101273.50;3573376;40;20342;-58
2021/04/27 05:16:12;;;;;;;8.93;5.68;;;;;;;1.10;100.00;101278.69;3574765;40;21285;-59
2021/04/27 05:18:39;;;;;;;9.32;5.63;;;;;;;1.12;100.00;101270.66;3574996;40;20044;-57
2021/04/27 05:21:06;;;;;;;9.05;5.65;;;;;;;1.18;100.00;101281.03;3573983;40;20112;-61
2021/04/27 05:23:34;;;;;;;13.48;6.15;;;;;;;1.14;100.00;101268.81;3574050;40;20072;-59
2021/04/27 05:26:00;;;;;;;9.27;5.50;;;;;;;1.19;100.00;101269.47;3575186;40;20092;-60
2021/04/27 05:28:26;;;;;;;11.18;6.32;;;;;;;1.38;100.00;101265.13;3574464;40;20349;-61
2021/04/27 05:30:52;;;;;;;10.70;5.85;;;;;;;1.38;100.00;101267.78;3576615;40;20048;-59
2021/04/27 05:33:18;;;;;;;13.60;5.82;;;;;;;1.60;100.00;101260.66;3575848;40;20412;-60
2021/04/27 05:35:44;;;;;;;9.98;5.53;;;;;;;1.64;100.00;101263.09;3574367;40;20052;-60
2021/04/27 05:38:11;;;;;;;11.57;5.53;;;;;;;1.64;100.00;101264.91;3574423;40;22167;-58
2021/04/27 05:40:38;;;;;;;10.70;5.78;;;;;;;1.70;100.00;101260.16;3574708;40;20028;-59
2021/04/27 05:43:05;;;;;;;8.07;5.60;;;;;;;1.95;100.00;101260.84;3574534;40;20031;-58
2021/04/27 05:45:31;;;;;;;9.75;6.32;;;;;;;2.11;100.00;101259.19;3576073;40;20044;-58
2021/04/27 05:47:57;;;;;;;8.48;6.40;;;;;;;2.32;100.00;101261.78;3576309;40;20064;-60
2021/04/27 05:50:23;;;;;;;13.82;6.10;;;;;;;2.54;100.00;101264.25;3575897;40;22129;-62
2021/04/27 05:52:49;;;;;;;9.43;6.10;;;;;;;2.92;100.00;101266.81;3573797;40;20190;-59
2021/04/27 05:55:15;;;;;;;7.78;5.40;;;;;;;3.34;100.00;101260.25;3573324;40;20090;-62
2021/04/27 05:57:42;;;;;;;10.65;5.55;;;;;;;3.06;100.00;101255.47;3574005;40;20059;-59
2021/04/27 06:00:09;;;;;;;10.75;5.32;;;;;;;3.03;100.00;101256.50;3576576;40;20044;-58
2021/04/27 06:02:35;;;;;;;8.93;6.05;;;;;;;3.03;100.00;101261.81;3575031;40;20072;-60
2021/04/27 06:05:01;;;;;;;7.65;5.65;;;;;;;3.20;100.00;101268.09;3574936;40;20171;-58
2021/04/27 06:07:28;;;;;;;8.23;5.20;;;;;;;3.39;100.00;101268.00;3575630;40;21301;-59
2021/04/27 06:09:54;;;;;;;8.93;5.50;;;;;;;3.56;100.00;101264.44;3574539;40;20061;-60
2021/04/27 06:12:20;;;;;;;9.93;5.63;;;;;;;3.67;100.00;101267.41;3573440;40;20077;-61
2021/04/27 06:14:47;;;;;;;8.05;5.18;;;;;;;3.90;100.00;101267.97;3575621;40;20052;-57
2021/04/27 06:17:13;;;;;;;12.43;5.40;;;;;;;4.16;100.00;101275.38;3573966;40;20436;-59
2021/04/27 06:19:39;;;;;;;10.20;5.20;;;;;;;4.41;100.00;101278.50;3575222;40;20086;-58
2021/04/27 06:22:05;;;;;;;8.93;5.80;;;;;;;4.63;100.00;101272.81;3573238;40;20411;-62
2021/04/27 06:24:31;;;;;;;6.53;5.10;;;;;;;4.72;100.00;101266.97;3572644;40;20129;-59
2021/04/27 06:26:57;;;;;;;7.53;5.00;;;;;;;4.96;100.00;101267.34;3574234;40;20064;-61
2021/04/27 06:29:23;;;;;;;6.75;5.30;;;;;;;5.10;100.00;101274.53;3576368;40;20067;-60
2021/04/27 06:31:50;;;;;;;7.03;4.97;;;;;;;5.05;100.00;101273.94;3577254;40;20095;-60
2021/04/27 06:34:16;;;;;;;7.85;5.57;;;;;;;4.94;100.00;101271.06;3576447;40;20529;-60
2021/04/27 06:36:42;;;;;;;10.68;5.32;;;;;;;5.22;100.00;101268.47;3576873;40;20311;-62
2021/04/27 06:39:08;;;;;;;7.15;5.25;;;;;;;5.32;100.00;101273.28;3576584;40;20087;-60
2021/04/27 06:41:35;;;;;;;6.72;4.38;;;;;;;5.46;100.00;101267.09;3576325;40;20083;-60
2021/04/27 06:44:02;;;;;;;9.57;4.82;;;;;;;5.66;100.00;101268.56;3575141;40;20072;-59
2021/04/27 06:46:29;;;;;;;7.10;4.95;;;;;;;5.84;100.00;101271.88;3575598;40;20048;-61
2021/04/27 06:48:56;;;;;;;8.77;5.07;;;;;;;5.83;100.00;101265.69;3575891;40;20085;-59
2021/04/27 06:51:22;;;;;;;7.55;5.30;;;;;;;5.95;100.00;101262.25;3575701;40;20469;-59
2021/04/27 06:53:50;;;;;;;7.90;4.90;;;;;;;6.10;100.00;101256.94;3577550;40;20060;-62
2021/04/27 06:56:17;;;;;;;8.60;4.85;;;;;;;6.48;100.00;101253.63;3576627;40;20288;-60
2021/04/27 06:58:43;;;;;;;7.97;4.57;;;;;;;6.79;100.00;101259.63;3575752;40;20052;-59
2021/04/27 07:01:10;;;;;;;9.85;4.88;;;;;;;6.81;100.00;101252.34;3578534;40;20048;-59
2021/04/27 07:03:36;;;;;;;8.00;4.18;;;;;;;6.75;100.00;101244.72;3581442;40;20059;-60
2021/04/27 07:06:04;;;;;;;7.80;4.35;;;;;;;7.01;100.00;101249.19;3581576;40;20049;-60
2021/04/27 07:08:30;;;;;;;5.60;4.00;;;;;;;7.24;95.17;101248.59;3582612;40;20118;-62
2021/04/27 07:10:57;;;;;;;5.32;4.07;;;;;;;7.32;95.51;101246.25;3581935;40;20048;-60
2021/04/27 07:13:24;;;;;;;6.57;4.20;;;;;;;7.54;93.41;101241.13;3581157;40;20317;-62
2021/04/27 07:15:50;;;;;;;5.72;4.00;;;;;;;7.59;88.33;101242.63;3581851;40;20064;-61
2021/04/27 07:18:16;;;;;;;6.18;4.35;;;;;;;7.74;87.37;101238.00;3581540;40;20616;-59
2021/04/27 07:20:42;;;;;;;7.00;4.40;;;;;;;8.12;88.72;101234.41;3582885;40;20401;-61
2021/04/27 07:23:09;;;;;;;6.10;4.35;;;;;;;8.36;89.61;101227.25;3581333;40;20051;-59
2021/04/27 07:25:35;;;;;;;6.95;4.15;;;;;;;8.51;81.57;101224.44;3582446;40;20052;-60
2021/04/27 07:28:04;;;;;;;6.38;3.88;;;;;;;8.49;79.43;101229.91;3581952;40;20399;-58
2021/04/27 07:30:30;;;;;;;6.10;3.83;;;;;;;8.58;76.30;101229.25;3582532;40;20060;-61
2021/04/27 07:32:56;;;;;;;5.93;4.05;;;;;;;8.94;75.63;101226.59;3581382;40;20136;-59
2021/04/27 07:35:22;;;;;;;6.03;4.00;;;;;;;9.09;71.79;101229.94;3581415;40;20056;-62
2021/04/27 07:37:48;;;;;;;6.32;4.13;;;;;;;9.22;72.33;101222.66;3581839;40;20124;-59
2021/04/27 07:40:16;;;;;;;8.70;4.50;;;;;;;9.47;71.09;101226.13;3581544;40;20052;-59
2021/04/27 07:42:42;;;;;;;5.82;3.95;;;;;;;9.32;69.20;101224.59;3581480;40;20060;-59
2021/04/27 07:45:10;;;;;;;5.55;3.80;;;;;;;9.61;70.17;101214.28;3581025;40;20057;-61
2021/04/27 07:47:36;;;;;;;6.80;3.92;;;;;;;9.84;69.86;101214.28;3581713;40;20043;-59
2021/04/27 07:50:03;;;;;;;5.45;3.85;;;;;;;10.06;66.72;101216.13;3582059;40;20048;-58
2021/04/27 07:55:00;;;;;;;6.65;4.00;;;;;;;10.42;69.26;101224.88;3566064;23;20049;-59
2021/04/27 07:57:27;;;;;;;5.88;3.85;;;;;;;10.24;65.24;101213.75;3571055;40;20339;-60
2021/04/27 07:59:53;;;;;;;6.97;4.18;;;;;;;10.36;60.80;101223.53;3571208;40;20059;-59
2021/04/27 08:02:19;;;;;;;5.10;3.95;;;;;;;10.22;58.79;101210.31;3567945;40;20081;-61
2021/04/27 08:04:46;;;;;;;5.43;4.15;;;;;;;10.49;61.76;101210.78;3572002;40;20045;-61
2021/04/27 08:07:12;;;;;;;8.23;4.18;;;;;;;10.50;59.89;101208.97;3571572;40;20045;-60
2021/04/27 08:09:38;;;;;;;5.95;4.13;;;;;;;10.61;58.96;101200.81;3571851;40;20085;-60
2021/04/27 08:12:05;;;;;;;9.20;4.00;;;;;;;10.71;61.25;101198.22;3567994;40;20088;-62
2021/04/27 08:14:32;;;;;;;5.55;3.45;;;;;;;10.91;57.26;101198.38;3568294;40;20052;-59
2021/04/27 08:16:58;;;;;;;6.22;4.45;;;;;;;10.85;54.51;101195.22;3571235;40;20392;-61
2021/04/27 08:19:25;;;;;;;5.03;3.60;;;;;;;10.97;55.65;101193.34;3571450;40;20037;-59
2021/04/27 08:21:51;;;;;;;6.70;4.03;;;;;;;11.21;54.31;101195.75;3572406;40;20053;-60
2021/04/27 08:24:17;;;;;;;5.25;3.40;;;;;;;11.42;55.44;101197.56;3570280;40;20059;-62
2021/04/27 08:26:43;;;;;;;6.88;3.75;;;;;;;11.44;55.80;101200.13;3571918;40;20085;-59
2021/04/27 08:29:09;;;;;;;6.60;4.10;;;;;;;11.18;48.31;101195.19;3572038;40;20554;-60
2021/04/27 08:31:36;;;;;;;6.05;4.07;;;;;;;11.50;49.45;101192.38;3571793;40;20424;-62
2021/04/27 08:34:02;;;;;;;5.47;3.88;;;;;;;11.64;48.54;101201.09;3570417;40;20053;-59
2021/04/27 08:36:28;;;;;;;7.57;3.83;;;;;;;11.63;46.67;101191.31;3571923;40;20080;-59
2021/04/27 08:38:55;;;;;;;5.45;3.90;;;;;;;11.64;43.79;101190.31;3571360;40;20360;-60
2021/04/27 08:41:24;;;;;;;7.53;3.80;;;;;;;11.71;42.92;101194.19;3570937;40;20668;-60
2021/04/27 08:43:50;;;;;;;5.80;4.00;;;;;;;12.19;46.30;101187.25;3571486;40;20057;-60
2021/04/27 08:46:16;;;;;;;5.78;3.80;;;;;;;12.85;42.79;101188.47;3571544;40;20068;-58
2021/04/27 08:48:43;;;;;;;5.35;3.38;;;;;;;12.66;39.58;101181.22;3571223;40;20072;-59
2021/04/27 08:51:11;;;;;;;7.00;4.07;;;;;;;12.75;41.61;101189.34;3565701;40;20544;-59
2021/04/27 08:53:37;;;;;;;6.47;3.50;;;;;;;12.94;41.67;101183.06;3565450;40;20441;-59
2021/04/27 08:56:04;;;;;;;4.53;4.00;;;;;;;12.96;42.24;101177.53;3569063;40;20045;-60
2021/04/27 08:58:30;;;;;;;6.47;3.75;;;;;;;13.06;39.28;101172.94;3569750;40;20052;-59
2021/04/27 09:00:56;;;;;;;7.13;4.60;;;;;;;12.80;39.63;101170.81;3569268;40;20048;-60
2021/04/27 09:03:22;;;;;;;7.35;3.63;;;;;;;12.98;45.18;101175.50;3569040;40;20369;-61
2021/04/27 09:05:49;;;;;;;7.47;3.83;;;;;;;13.36;38.29;101170.22;3571507;40;20045;-61
2021/04/27 09:08:15;;;;;;;6.28;3.72;;;;;;;13.25;38.44;101174.75;3570892;40;20177;-61
2021/04/27 09:10:43;;;;;;;8.23;3.90;;;;;;;13.06;38.40;101164.84;3571252;40;20089;-60
2021/04/27 09:13:11;;;;;;;6.50;4.20;;;;;;;13.08;37.87;101170.09;3569286;40;20061;-62
2021/04/27 09:15:43;;;;;;;6.82;4.20;;;;;;;13.37;40.92;101163.78;3570555;40;20416;-63
2021/04/27 09:18:23;;;;;;;6.25;4.18;;;;;;;13.42;42.29;101166.91;3570151;40;20385;-60
2021/04/27 09:20:52;;;;;;;7.15;4.38;;;;;;;13.71;40.20;101161.41;3570910;40;20102;-62
2021/04/27 09:23:19;;;;;;;6.15;4.15;;;;;;;13.55;38.14;101153.06;3570338;40;20144;-60
2021/04/27 09:26:08;;;;;;;5.35;4.22;;;;;;;13.32;40.34;101161.50;3571126;40;20069;-60
2021/04/27 09:28:34;;;;;;;7.63;4.18;;;;;;;13.08;40.38;101154.72;3571778;40;20055;-59
2021/04/27 09:31:00;;;;;;;6.18;3.78;;;;;;;13.39;41.01;101142.88;3567299;40;20594;-59
2021/04/27 09:33:27;;;;;;;6.25;3.88;;;;;;;13.81;41.24;101139.72;3570622;40;20710;-63
2021/04/27 09:35:54;;;;;;;4.20;3.47;;;;;;;13.88;40.86;101142.66;3571013;40;20045;-60
2021/04/27 09:38:22;;;;;;;8.25;3.70;;;;;;;14.37;40.04;101141.34;3570967;40;20067;-62
2021/04/27 09:40:53;;;;;;;5.45;3.58;;;;;;;14.46;38.05;101133.31;3571185;40;20034;-60
2021/04/27 09:43:21;;;;;;;6.78;3.67;;;;;;;14.47;36.77;101135.00;3570227;40;20068;-60
2021/04/27 09:45:49;;;;;;;4.82;3.42;;;;;;;14.00;37.62;101127.91;3570713;40;20052;-60
2021/04/27 09:48:30;;;;;;;5.43;3.63;;;;;;;14.22;36.39;101132.03;3570886;40;20061;-60
2021/04/27 09:51:04;;;;;;;6.40;2.92;;;;;;;14.05;34.97;101130.19;3571143;40;20029;-61
2021/04/27 09:53:40;;;;;;;6.60;2.97;;;;;;;14.01;32.86;101125.03;3567758;40;20069;-59
2021/04/27 09:56:07;;;;;;;4.82;3.20;;;;;;;13.96;35.11;101111.13;3570071;40;20080;-60
2021/04/27 09:58:33;;;;;;;6.45;3.40;;;;;;;14.13;33.95;101117.59;3571404;40;20101;-63
2021/04/27 10:00:59;;;;;;;4.70;3.20;;;;;;;14.30;33.06;101112.34;3571653;40;20033;-59
2021/04/27 10:03:26;;;;;;;5.57;2.65;;;;;;;14.70;35.46;101121.88;3570123;40;20124;-60
2021/04/27 10:05:53;;;;;;;4.88;3.20;;;;;;;14.73;34.20;101118.00;3570857;40;20045;-60
2021/04/27 10:08:20;;;;;;;5.75;3.58;;;;;;;14.62;35.92;101114.53;3571042;40;20123;-60
2021/04/27 10:10:48;;;;;;;5.63;3.35;;;;;;;14.61;33.99;101112.81;3571446;40;20061;-60
2021/04/27 10:13:14;;;;;;;6.07;3.33;;;;;;;14.73;33.40;101101.75;3570470;40;20077;-59
2021/04/27 10:15:40;;;;;;;6.10;3.15;;;;;;;14.79;34.26;101111.94;3569835;40;20041;-58
2021/04/27 10:18:08;;;;;;;5.50;3.30;;;;;;;14.60;33.84;101113.78;3570015;40;20537;-61
2021/04/27 10:20:34;;;;;;;5.55;3.33;;;;;;;14.60;32.85;101102.09;3570212;40;20033;-62
2021/04/27 10:23:04;;;;;;;5.72;2.90;;;;;;;14.76;32.61;101099.56;3569380;40;20053;-61
2021/04/27 10:25:32;;;;;;;6.00;3.22;;;;;;;14.74;32.82;101095.28;3568235;40;20065;-59
2021/04/27 10:28:01;;;;;;;4.25;2.97;;;;;;;14.88;32.35;101092.88;3570102;40;20101;-60
2021/04/27 10:30:32;;;;;;;5.75;3.20;;;;;;;15.06;31.52;101087.41;3569655;40;20091;-61
2021/04/27 10:33:24;;;;;;;6.45;3.20;;;;;;;15.06;32.34;101087.41;3568580;40;20037;-60
2021/04/27 10:36:10;;;;;;;4.32;2.92;;;;;;;15.22;32.71;101083.06;3560363;40;20135;-61
2021/04/27 10:38:45;;;;;;;5.80;3.38;;;;;;;15.10;32.09;101071.66;3569141;40;20051;-62
2021/04/27 10:41:15;;;;;;;6.82;3.17;;;;;;;15.09;32.47;101078.13;3569378;40;20071;-59
2021/04/27 10:43:44;;;;;;;5.47;3.08;;;;;;;14.69;32.74;101080.38;3569710;40;20061;-62
2021/04/27 10:46:51;;;;;;;4.65;3.33;;;;;;;15.16;33.44;101081.00;3569668;40;20262;-62
2021/04/27 10:49:23;;;;;;;3.72;3.03;;;;;;;15.33;31.25;101066.53;3565858;40;20254;-60
2021/04/27 10:51:49;;;;;;;4.45;2.72;;;;;;;15.50;33.12;101072.88;3569571;40;20053;-60
2021/04/27 10:54:20;;;;;;;3.90;2.97;;;;;;;15.54;30.69;101067.97;3568381;40;20319;-59
2021/04/27 10:56:49;;;;;;;5.40;3.15;;;;;;;15.66;29.92;101072.06;3569220;40;20075;-63
2021/04/27 10:59:17;;;;;;;6.07;2.67;;;;;;;16.01;32.28;101075.59;3568509;40;20097;-60
2021/04/27 11:01:45;;;;;;;8.90;2.90;;;;;;;15.53;31.68;101071.69;3569598;40;20135;-60
2021/04/27 11:07:31;;;;;;;5.28;2.60;;;;;;;15.56;30.69;101060.50;3570034;23;20311;-60
2021/04/27 11:10:22;;;;;;;3.25;2.60;;;;;;;15.58;30.57;101063.94;3536375;40;20487;-61
2021/04/27 11:13:11;;;;;;;4.07;2.95;;;;;;;15.57;29.92;101060.34;3537726;40;20061;-59
2021/04/27 11:15:38;;;;;;;4.72;2.83;;;;;;;15.72;31.95;101054.28;3539088;40;20042;-60
2021/04/27 11:18:10;;;;;;;7.07;3.00;;;;;;;15.41;30.39;101047.59;3539250;40;20049;-60
2021/04/27 11:20:52;;;;;;;6.40;3.40;;;;;;;15.80;31.22;101048.06;3540263;40;20074;-60
2021/04/27 11:23:50;;;;;;;4.07;3.20;;;;;;;15.24;31.91;101038.53;3535597;40;20057;-62
2021/04/27 11:26:54;;;;;;;5.78;3.10;;;;;;;16.29;31.77;101051.69;3535560;40;20364;-59
2021/04/27 11:29:29;;;;;;;7.18;3.05;;;;;;;16.22;30.73;101044.41;3540368;40;20314;-64
2021/04/27 11:32:05;;;;;;;4.43;2.90;;;;;;;16.53;28.61;101041.84;3540092;40;20046;-60
2021/04/27 11:34:46;;;;;;;5.00;3.00;;;;;;;16.11;29.74;101032.84;3539100;40;20063;-60
2021/04/27 11:37:17;;;;;;;6.00;3.05;;;;;;;16.20;30.73;101025.56;3538810;40;20054;-59
2021/04/27 11:39:43;;;;;;;4.88;3.17;;;;;;;16.49;30.71;101032.38;3540501;40;20061;-60